Time;durP1;ratioP1;P1;durP2;ratioP2;P2;SDS_P1;SDS_P2;PMS_P1;PMS_P2;Temp;Humidity;BMP_temperature;BMP_pressure;BME280_temperature;BME280_humidity;BME280_pressure;Samples;Min_cycle;Max_cycle;Signal;HPM_P1;HPM_P2
2023/10/18 00:00:32;;;;;;;;;;;;;;;4.69;100.00;101160.59;5095041;28;19927;-57
2023/10/18 00:03:01;;;;;;;;;;;;;;;4.69;100.00;101158.03;5094576;28;20349;-57
2023/10/18 00:05:26;;;;;;;;;;;;;;;4.69;100.00;101158.03;5095070;28;19920;-58
2023/10/18 00:07:57;;;;;;;;;;;;;;;4.71;100.00;101157.34;5095465;28;19916;-58
2023/10/18 00:10:22;;;;;;;;;;;;;;;4.75;100.00;101159.28;5094264;28;19962;-57
2023/10/18 00:12:48;;;;;;;;;;;;;;;4.74;100.00;101151.53;5095363;28;19916;-58
2023/10/18 00:15:14;;;;;;;;;;;;;;;4.73;100.00;101152.31;5095133;28;19944;-58
2023/10/18 00:17:39;;;;;;;;;;;;;;;4.71;100.00;101146.22;5094475;28;19916;-58
2023/10/18 00:20:13;;;;;;;;;;;;;;;4.70;100.00;101144.47;5094998;28;19916;-58
2023/10/18 00:22:38;;;;;;;;;;;;;;;4.68;100.00;101146.94;5095128;28;19920;-58
2023/10/18 00:25:06;;;;;;;;;;;;;;;4.67;100.00;101140.06;5094109;28;20061;-58
2023/10/18 00:27:31;;;;;;;;;;;;;;;4.66;100.00;101142.53;5094548;28;20376;-57
2023/10/18 00:29:58;;;;;;;;;;;;;;;4.63;100.00;101139.81;5094929;28;19963;-58
2023/10/18 00:32:23;;;;;;;;;;;;;;;4.61;100.00;101140.59;5093997;28;19916;-57
2023/10/18 00:34:49;;;;;;;;;;;;;;;4.60;100.00;101133.72;5094774;28;20057;-58
2023/10/18 00:37:16;;;;;;;;;;;;;;;4.58;100.00;101127.66;5094465;28;19916;-57
2023/10/18 00:39:41;;;;;;;;;;;;;;;4.59;100.00;101131.94;5093793;28;19916;-57
2023/10/18 00:44:51;;;;;;;;;;;;;;;4.54;100.00;101137.59;5094258;28;19927;-57
2023/10/18 00:47:17;;;;;;;;;;;;;;;4.53;100.00;101134.16;5093601;28;20062;-57
2023/10/18 00:49:42;;;;;;;;;;;;;;;4.53;100.00;101131.63;5094478;28;20011;-57
2023/10/18 00:52:08;;;;;;;;;;;;;;;4.52;100.00;101140.06;5093622;28;19916;-58
2023/10/18 00:54:33;;;;;;;;;;;;;;;4.51;100.00;101133.19;5094359;28;19923;-58
2023/10/18 00:56:58;;;;;;;;;;;;;;;4.50;100.00;101126.31;5094325;28;19916;-58
2023/10/18 00:59:26;;;;;;;;;;;;;;;4.48;100.00;101127.91;5093071;28;20007;-58
2023/10/18 01:01:58;;;;;;;;;;;;;;;4.45;100.00;101123.50;5094509;28;19996;-57
2023/10/18 01:04:24;;;;;;;;;;;;;;;4.43;100.00;101116.56;5093959;28;20345;-58
2023/10/18 01:06:50;;;;;;;;;;;;;;;4.43;100.00;101116.56;5093482;28;19916;-57
2023/10/18 01:09:16;;;;;;;;;;;;;;;4.43;100.00;101112.31;5093907;28;20360;-58
2023/10/18 01:11:41;;;;;;;;;;;;;;;4.43;100.00;101103.78;5094321;28;19919;-57
2023/10/18 01:14:07;;;;;;;;;;;;;;;4.40;100.00;101103.59;5093269;28;19952;-58
2023/10/18 01:16:35;;;;;;;;;;;;;;;4.41;100.00;101100.25;5094055;28;19974;-57
2023/10/18 01:19:01;;;;;;;;;;;;;;;4.38;100.00;101100.97;5094159;28;20006;-58
2023/10/18 01:21:27;;;;;;;;;;;;;;;4.38;100.00;101097.53;5092964;28;19916;-57
2023/10/18 01:23:54;;;;;;;;;;;;;;;4.38;100.00;101097.53;5093895;28;20363;-58
2023/10/18 01:26:23;;;;;;;;;;;;;;;4.37;100.00;101083.00;5093783;28;19916;-57
2023/10/18 01:28:49;;;;;;;;;;;;;;;4.35;100.00;101084.56;5093217;28;19923;-58
2023/10/18 01:31:14;;;;;;;;;;;;;;;4.36;100.00;101071.03;5093637;28;19916;-58
2023/10/18 01:33:43;;;;;;;;;;;;;;;4.34;100.00;101070.97;5093818;28;20325;-57
2023/10/18 01:36:12;;;;;;;;;;;;;;;4.34;100.00;101065.84;5092875;28;19938;-58
2023/10/18 01:38:39;;;;;;;;;;;;;;;4.33;100.00;101060.66;5093866;28;19968;-58
2023/10/18 01:41:13;;;;;;;;;;;;;;;4.33;100.00;101063.22;5093513;28;20372;-58
2023/10/18 01:43:38;;;;;;;;;;;;;;;4.34;100.00;101064.94;5093014;28;20087;-57
2023/10/18 01:46:08;;;;;;;;;;;;;;;4.34;100.00;101059.84;5093729;28;19981;-58
2023/10/18 01:48:37;;;;;;;;;;;;;;;4.34;100.00;101053.09;5092569;28;19920;-58
2023/10/18 01:51:05;;;;;;;;;;;;;;;4.36;100.00;101050.63;5093520;28;20339;-57
2023/10/18 01:53:30;;;;;;;;;;;;;;;4.33;100.00;101032.59;5093394;28;19932;-58
2023/10/18 01:55:57;;;;;;;;;;;;;;;4.31;100.00;101039.28;5092897;28;19916;-58
2023/10/18 01:58:26;;;;;;;;;;;;;;;4.29;100.00;101029.84;5093281;28;19947;-57
2023/10/18 02:00:53;;;;;;;;;;;;;;;4.29;100.00;101027.28;5092943;28;20348;-58
2023/10/18 02:03:19;;;;;;;;;;;;;;;4.29;100.00;101024.75;5092272;28;20421;-58
2023/10/18 02:05:46;;;;;;;;;;;;;;;4.28;100.00;101017.88;5093564;28;19919;-57
2023/10/18 02:08:11;;;;;;;;;;;;;;;4.28;100.00;101017.00;5093326;28;19916;-57
2023/10/18 02:10:40;;;;;;;;;;;;;;;4.28;100.00;101020.44;5092623;28;19942;-57
2023/10/18 02:13:05;;;;;;;;;;;;;;;4.26;100.00;101008.38;5093315;28;20375;-57
2023/10/18 02:15:32;;;;;;;;;;;;;;;4.23;100.00;101014.19;5093013;28;20019;-57
2023/10/18 02:17:58;;;;;;;;;;;;;;;4.25;100.00;101006.63;5092444;28;19916;-58
2023/10/18 02:20:26;;;;;;;;;;;;;;;4.25;100.00;101006.63;5093006;28;19924;-57
2023/10/18 02:23:01;;;;;;;;;;;;;;;4.23;100.00;101009.06;5093376;28;19916;-57
2023/10/18 02:28:08;;;;;;;;;;;;;;;4.22;100.00;101001.34;5093222;28;19920;-57
2023/10/18 02:30:37;;;;;;;;;;;;;;;4.22;100.00;100997.13;5092499;28;19916;-57
2023/10/18 02:33:04;;;;;;;;;;;;;;;4.22;100.00;100997.13;5093227;28;19961;-57
2023/10/18 02:35:30;;;;;;;;;;;;;;;4.25;100.00;100999.84;5092952;28;19923;-57
2023/10/18 02:37:55;;;;;;;;;;;;;;;4.27;100.00;100995.72;5092536;28;19920;-57
2023/10/18 02:40:29;;;;;;;;;;;;;;;4.28;100.00;100991.50;5093008;28;19916;-57
2023/10/18 02:42:55;;;;;;;;;;;;;;;4.28;100.00;100991.50;5093277;28;19923;-57
2023/10/18 02:45:22;;;;;;;;;;;;;;;4.25;100.00;100993.88;5092245;28;19916;-57
2023/10/18 02:47:51;;;;;;;;;;;;;;;4.20;100.00;100983.41;5093077;28;19942;-57
2023/10/18 02:50:17;;;;;;;;;;;;;;;4.23;100.00;100990.34;5092721;28;19912;-57
2023/10/18 02:52:43;;;;;;;;;;;;;;;4.25;100.00;100982.00;5092227;28;20006;-57
2023/10/18 02:55:13;;;;;;;;;;;;;;;4.23;100.00;100975.91;5092938;28;20323;-57
2023/10/18 02:57:40;;;;;;;;;;;;;;;4.22;100.00;100966.53;5093070;28;19932;-57
2023/10/18 03:00:10;;;;;;;;;;;;;;;4.23;100.00;100968.25;5092076;28;19924;-57
2023/10/18 03:02:38;;;;;;;;;;;;;;;4.23;100.00;100968.25;5093098;28;19923;-58
2023/10/18 03:05:05;;;;;;;;;;;;;;;4.24;100.00;100974.25;5092942;28;19917;-57
2023/10/18 03:07:30;;;;;;;;;;;;;;;4.24;100.00;100967.47;5092851;28;19947;-58
2023/10/18 03:10:02;;;;;;;;;;;;;;;4.25;100.00;100961.59;5096670;28;20411;-57
2023/10/18 03:12:28;;;;;;;;;;;;;;;4.25;100.00;100956.47;5096439;28;19951;-58
2023/10/18 03:14:57;;;;;;;;;;;;;;;4.23;100.00;100952.09;5095737;28;19916;-58
2023/10/18 03:17:28;;;;;;;;;;;;;;;4.20;100.00;100949.38;5096104;28;20007;-57
2023/10/18 03:19:56;;;;;;;;;;;;;;;4.16;100.00;100945.75;5095478;28;19963;-57
2023/10/18 03:22:23;;;;;;;;;;;;;;;4.15;100.00;100941.44;5095871;28;19951;-58
2023/10/18 03:24:54;;;;;;;;;;;;;;;4.15;100.00;100949.09;5096745;28;19916;-57
2023/10/18 03:27:20;;;;;;;;;;;;;;;4.16;100.00;100944.84;5095033;28;20275;-58
2023/10/18 03:29:45;;;;;;;;;;;;;;;4.18;100.00;100939.06;5096296;28;19917;-57
2023/10/18 03:32:15;;;;;;;;;;;;;;;4.19;100.00;100932.31;5095807;28;19952;-57
2023/10/18 03:34:41;;;;;;;;;;;;;;;4.19;100.00;100933.16;5095203;28;19920;-57
2023/10/18 03:37:07;;;;;;;;;;;;;;;4.20;100.00;100936.63;5096159;28;19916;-57
2023/10/18 03:39:32;;;;;;;;;;;;;;;4.22;100.00;100935.91;5095690;28;19924;-58
2023/10/18 03:42:02;;;;;;;;;;;;;;;4.22;100.00;100929.91;5095009;28;19917;-57
2023/10/18 03:44:28;;;;;;;;;;;;;;;4.25;100.00;100920.75;5095726;28;19951;-57
2023/10/18 03:47:11;;;;;;;;;;;;;;;4.27;100.00;100906.44;5095742;28;19923;-57
2023/10/18 03:49:37;;;;;;;;;;;;;;;4.29;100.00;100909.94;5095239;28;19961;-57
2023/10/18 03:57:28;;;;;;;;;;;;;;;4.35;100.00;100900.84;5094881;28;19924;-57
2023/10/18 03:59:57;;;;;;;;;;;;;;;4.35;100.00;100885.56;5095405;28;20011;-57
2023/10/18 04:04:48;;;;;;;;;;;;;;;4.32;100.00;100880.28;5095611;28;19916;-58
2023/10/18 04:07:16;;;;;;;;;;;;;;;4.31;100.00;100881.94;5095149;28;19916;-57
2023/10/18 04:09:47;;;;;;;;;;;;;;;4.31;100.00;100873.44;5094611;28;19916;-57
2023/10/18 04:12:17;;;;;;;;;;;;;;;4.31;100.00;100881.94;5095003;28;20032;-57
2023/10/18 04:14:50;;;;;;;;;;;;;;;4.32;100.00;100881.16;5095500;28;19916;-58
2023/10/18 04:17:19;;;;;;;;;;;;;;;4.34;100.00;100877.03;5094381;28;19939;-57
2023/10/18 04:19:44;;;;;;;;;;;;;;;4.36;100.00;100867.78;5095202;28;19916;-57
2023/10/18 04:22:09;;;;;;;;;;;;;;;4.38;100.00;100862.78;5095180;28;19920;-57
2023/10/18 04:24:35;;;;;;;;;;;;;;;4.40;100.00;100858.63;5094064;28;19939;-57
2023/10/18 04:27:04;;;;;;;;;;;;;;;4.41;100.00;100860.38;5095000;28;19927;-58
2023/10/18 04:29:33;;;;;;;;;;;;;;;4.41;100.00;100860.38;5094882;28;19966;-57
2023/10/18 04:31:58;;;;;;;;;;;;;;;4.41;100.00;100850.16;5094349;28;19923;-58
2023/10/18 04:34:24;;;;;;;;;;;;;;;4.43;100.00;100848.59;5094766;28;19917;-57
2023/10/18 04:36:51;;;;;;;;;;;;;;;4.47;100.00;100844.50;5094818;28;19916;-57
2023/10/18 04:39:18;;;;;;;;;;;;;;;4.49;100.00;100848.91;5093788;28;19917;-58
2023/10/18 04:41:44;;;;;;;;;;;;;;;4.52;100.00;100848.19;5094849;28;19923;-57
2023/10/18 04:44:18;;;;;;;;;;;;;;;4.52;100.00;100831.22;5094890;28;19916;-57
2023/10/18 04:46:47;;;;;;;;;;;;;;;4.52;100.00;100823.56;5094898;28;19916;-57
2023/10/18 04:51:57;;;;;;;;;;;;;;;4.55;100.00;100822.84;5093796;28;20378;-57
2023/10/18 04:55:05;;;;;;;;;;;;;;;4.58;100.00;100817.91;5094363;28;19916;-58
2023/10/18 04:57:11;;;;;;;;;;;;;;;4.58;100.00;100811.13;5088374;28;19927;-57
2023/10/18 04:59:45;;;;;;;;;;;;;;;4.61;100.00;100815.53;5093555;28;19920;-56
2023/10/18 05:02:17;;;;;;;;;;;;;;;4.63;100.00;100818.16;5093986;28;20021;-58
2023/10/18 05:04:42;;;;;;;;;;;;;;;4.65;100.00;100809.78;5094284;28;20357;-57
2023/10/18 05:09:41;;;;;;;;;;;;;;;4.68;100.00;100820.13;5094352;28;20010;-57
2023/10/18 05:12:16;;;;;;;;;;;;;;;4.70;100.00;100805.78;5094288;28;19936;-57
2023/10/18 05:14:59;;;;;;;;;;;;;;;4.71;100.00;100801.56;5093260;28;20294;-57
2023/10/18 05:17:44;;;;;;;;;;;;;;;4.71;100.00;100805.00;5094042;28;19922;-57
2023/10/18 05:22:45;;;;;;;;;;;;;;;4.73;100.00;100794.88;5094022;28;19923;-58
2023/10/18 05:27:46;;;;;;;;;;;;;;;4.73;100.00;100795.72;5093086;28;19916;-57
2023/10/18 05:30:26;;;;;;;;;;;;;;;4.72;100.00;100791.41;5093342;28;19973;-58
2023/10/18 05:35:29;;;;;;;;;;;;;;;4.72;100.00;100785.44;5092840;28;19923;-58
2023/10/18 05:37:58;;;;;;;;;;;;;;;4.72;100.00;100785.44;5093967;28;19920;-57
2023/10/18 05:43:03;;;;;;;;;;;;;;;4.69;100.00;100786.16;5093920;28;20046;-57
2023/10/18 05:45:31;;;;;;;;;;;;;;;4.70;100.00;100781.91;5093360;28;19920;-57
2023/10/18 05:47:57;;;;;;;;;;;;;;;4.69;100.00;100780.19;5092686;28;20355;-58
2023/10/18 05:50:24;;;;;;;;;;;;;;;4.69;100.00;100781.06;5093453;28;19923;-57
2023/10/18 05:52:49;;;;;;;;;;;;;;;4.68;100.00;100768.22;5093748;28;20011;-57
2023/10/18 05:55:14;;;;;;;;;;;;;;;4.68;100.00;100768.22;5092244;28;19966;-57
2023/10/18 05:57:40;;;;;;;;;;;;;;;4.68;100.00;100765.66;5093399;28;19924;-57
2023/10/18 06:00:18;;;;;;;;;;;;;;;4.67;100.00;100761.34;5093268;28;19981;-57
2023/10/18 06:02:43;;;;;;;;;;;;;;;4.66;100.00;100754.47;5092532;28;20326;-57
2023/10/18 06:05:12;;;;;;;;;;;;;;;4.64;100.00;100762.06;5093556;28;19920;-57
2023/10/18 06:07:37;;;;;;;;;;;;;;;4.63;100.00;100757.75;5093709;28;19916;-57
2023/10/18 06:10:16;;;;;;;;;;;;;;;4.64;100.00;100761.19;5092641;28;19984;-57
2023/10/18 06:12:46;;;;;;;;;;;;;;;4.63;100.00;100751.78;5093355;28;20012;-57
2023/10/18 06:15:11;;;;;;;;;;;;;;;4.64;100.00;100756.97;5092942;28;19944;-57
2023/10/18 06:20:16;;;;;;;;;;;;;;;4.67;100.00;100758.78;5093193;28;19920;-57
2023/10/18 06:22:43;;;;;;;;;;;;;;;4.68;100.00;100747.78;5092654;28;19966;-57
2023/10/18 06:25:09;;;;;;;;;;;;;;;4.69;100.00;100744.44;5093326;28;19916;-57
2023/10/18 06:27:41;;;;;;;;;;;;;;;4.71;100.00;100747.94;5093111;28;19920;-57
2023/10/18 06:30:14;;;;;;;;;;;;;;;4.72;100.00;100735.25;5092581;28;20029;-57
2023/10/18 06:32:40;;;;;;;;;;;;;;;4.75;100.00;100735.41;5093293;28;19939;-57
2023/10/18 06:35:14;;;;;;;;;;;;;;;4.77;100.00;100723.59;5093237;28;19986;-57
2023/10/18 06:37:42;;;;;;;;;;;;;;;4.79;100.00;100716.03;5092268;28;20389;-57
2023/10/18 06:40:40;;;;;;;;;;;;;;;4.80;100.00;100707.56;5092950;28;19916;-57
2023/10/18 06:43:06;;;;;;;;;;;;;;;4.81;100.00;100708.44;5095294;28;20318;-57
2023/10/18 06:45:33;;;;;;;;;;;;;;;4.84;100.00;100706.94;5096072;28;19920;-57
2023/10/18 06:47:58;;;;;;;;;;;;;;;4.87;100.00;100713.88;5097084;28;19916;-58
2023/10/18 06:50:26;;;;;;;;;;;;;;;4.89;100.00;100710.59;5096635;28;20371;-57
2023/10/18 06:52:52;;;;;;;;;;;;;;;4.92;100.00;100708.19;5095936;28;20420;-57
2023/10/18 06:55:18;;;;;;;;;;;;;;;4.95;100.00;100708.31;5096680;28;20010;-57
2023/10/18 06:57:45;;;;;;;;;;;;;;;4.99;100.00;100699.16;5096941;28;19922;-57
2023/10/18 07:00:12;;;;;;;;;;;;;;;5.03;100.00;100700.19;5095435;28;19994;-57
2023/10/18 07:02:38;;;;;;;;;;;;;;;5.06;100.00;100697.75;5096635;28;19922;-57
2023/10/18 07:05:04;;;;;;;;;;;;;;;5.10;100.00;100692.03;5095764;28;19916;-57
2023/10/18 07:07:29;;;;;;;;;;;;;;;5.16;100.00;100697.41;5096155;28;20011;-57
2023/10/18 07:09:56;;;;;;;;;;;;;;;5.21;100.00;100700.22;5096511;28;19990;-57
2023/10/18 07:12:27;;;;;;;;;;;;;;;5.25;100.00;100695.34;5095582;28;20014;-57
2023/10/18 07:15:00;;;;;;;;;;;;;;;5.31;100.00;100697.31;5096554;28;19916;-57
2023/10/18 07:17:25;;;;;;;;;;;;;;;5.37;100.00;100692.50;5096116;28;19916;-57
2023/10/18 07:19:55;;;;;;;;;;;;;;;5.42;100.00;100685.91;5095412;28;20014;-57
2023/10/18 07:22:27;;;;;;;;;;;;;;;5.47;100.00;100695.47;5096167;28;20050;-57
2023/10/18 07:24:59;;;;;;;;;;;;;;;5.54;100.00;100684.72;5096382;28;19916;-57
2023/10/18 07:27:29;;;;;;;;;;;;;;;5.58;100.00;100679.84;5095428;28;19918;-57
2023/10/18 07:29:55;;;;;;;;;;;;;;;5.63;100.00;100674.06;5096181;28;19916;-57
2023/10/18 07:32:23;;;;;;;;;;;;;;;5.69;100.00;100671.78;5095687;28;19920;-57
2023/10/18 07:34:49;;;;;;;;;;;;;;;5.74;100.00;100668.63;5095407;28;19923;-57
2023/10/18 07:37:17;;;;;;;;;;;;;;;5.82;100.00;100663.00;5095828;28;19916;-57
2023/10/18 07:39:49;;;;;;;;;;;;;;;5.87;100.00;100666.66;5096348;28;20053;-57
2023/10/18 07:42:18;;;;;;;;;;;;;;;5.91;100.00;100658.31;5094884;28;20010;-57
2023/10/18 07:44:46;;;;;;;;;;;;;;;6.00;100.00;100655.34;5095862;28;19916;-57
2023/10/18 07:47:17;;;;;;;;;;;;;;;6.05;100.00;100643.63;5094900;28;19916;-57
2023/10/18 07:49:45;;;;;;;;;;;;;;;6.10;100.00;100647.25;5095841;28;19916;-57
2023/10/18 07:52:11;;;;;;;;;;;;;;;6.16;100.00;100637.31;5095448;28;19942;-57
2023/10/18 07:54:37;;;;;;;;;;;;;;;6.20;100.00;100638.31;5094549;28;19923;-57
2023/10/18 07:57:02;;;;;;;;;;;;;;;6.25;100.00;100647.06;5095556;28;19916;-57
2023/10/18 07:59:30;;;;;;;;;;;;;;;6.29;100.00;100642.94;5095243;28;19989;-57
2023/10/18 08:04:43;;;;;;;;;;;;;;;6.38;100.00;100633.13;5095670;28;19970;-57
2023/10/18 08:07:10;;;;;;;;;;;;;;;6.43;100.00;100629.06;5095460;28;20329;-57
2023/10/18 08:09:41;;;;;;;;;;;;;;;6.51;100.00;100634.53;5094564;28;20003;-57
2023/10/18 08:12:08;;;;;;;;;;;;;;;6.58;100.00;100632.28;5095535;28;19920;-57
2023/10/18 08:14:33;;;;;;;;;;;;;;;6.69;100.00;100632.72;5095123;28;19969;-57
2023/10/18 08:17:08;;;;;;;;;;;;;;;6.79;100.00;100625.41;5094671;28;19920;-57
2023/10/18 08:19:43;;;;;;;;;;;;;;;6.91;100.00;100621.69;5095028;28;19943;-57
2023/10/18 08:24:36;;;;;;;;;;;;;;;7.20;100.00;100615.97;5093875;28;20260;-57
2023/10/18 08:27:09;;;;;;;;;;;;;;;7.36;100.00;100620.00;5095237;28;19920;-57
2023/10/18 08:29:34;;;;;;;;;;;;;;;7.52;100.00;100622.34;5094111;28;19980;-57
2023/10/18 08:32:04;;;;;;;;;;;;;;;7.70;100.00;100613.63;5095172;28;19920;-57
2023/10/18 08:34:31;;;;;;;;;;;;;;;7.83;100.00;100613.25;5094664;28;20403;-57
2023/10/18 08:37:03;;;;;;;;;;;;;;;7.86;100.00;100615.94;5093898;28;20433;-58
2023/10/18 08:39:28;;;;;;;;;;;;;;;7.86;100.00;100613.38;5094704;28;19916;-57
2023/10/18 08:42:05;;;;;;;;;;;;;;;7.84;100.00;100612.44;5094730;28;19917;-57
2023/10/18 08:44:32;;;;;;;;;;;;;;;7.79;100.00;100606.25;5093639;28;19973;-57
2023/10/18 08:47:12;;;;;;;;;;;;;;;7.81;100.00;100598.59;5094632;28;19924;-57
2023/10/18 08:49:44;;;;;;;;;;;;;;;7.89;100.00;100599.78;5094948;28;20011;-57
2023/10/18 08:52:10;;;;;;;;;;;;;;;7.95;100.00;100591.41;5093936;28;19962;-57
2023/10/18 08:54:36;;;;;;;;;;;;;;;8.06;100.00;100590.13;5094884;28;19920;-57
2023/10/18 08:57:06;;;;;;;;;;;;;;;8.16;100.00;100584.50;5094447;28;20429;-57
2023/10/18 08:59:48;;;;;;;;;;;;;;;8.26;100.00;100577.09;5093124;28;19999;-57
2023/10/18 09:02:23;;;;;;;;;;;;;;;8.34;100.00;100578.22;5094263;28;19916;-57
2023/10/18 09:04:52;;;;;;;;;;;;;;;8.40;100.00;100575.88;5093157;28;20015;-57
2023/10/18 09:07:42;;;;;;;;;;;;;;;8.50;100.00;100567.69;5094047;28;19916;-57
2023/10/18 09:10:13;;;;;;;;;;;;;;;8.64;100.00;100567.28;5094107;28;19916;-57
2023/10/18 09:17:54;;;;;;;;;;;;;;;9.16;100.00;100555.22;5094650;28;19945;-57
2023/10/18 09:20:19;;;;;;;;;;;;;;;9.23;100.00;100555.44;5092896;28;19916;-57
2023/10/18 09:22:48;;;;;;;;;;;;;;;9.38;100.00;100551.59;5094191;28;19916;-57
2023/10/18 09:25:13;;;;;;;;;;;;;;;9.56;100.00;100557.25;5093861;28;19975;-57
2023/10/18 09:27:38;;;;;;;;;;;;;;;9.74;100.00;100544.91;5093292;28;20425;-57
2023/10/18 09:30:04;;;;;;;;;;;;;;;9.95;99.71;100544.59;5093951;28;19916;-57
2023/10/18 09:32:33;;;;;;;;;;;;;;;10.09;97.12;100532.13;5093545;28;20376;-57
2023/10/18 09:35:07;;;;;;;;;;;;;;;10.18;100.00;100533.22;5093716;28;19921;-57
2023/10/18 09:37:35;;;;;;;;;;;;;;;10.38;99.21;100525.19;5093450;28;20326;-57
2023/10/18 09:40:02;;;;;;;;;;;;;;;10.62;99.84;100524.88;5093077;28;19923;-57
2023/10/18 09:42:27;;;;;;;;;;;;;;;10.72;93.32;100520.84;5093606;28;20006;-57
2023/10/18 09:44:52;;;;;;;;;;;;;;;10.65;87.84;100529.25;5093773;28;20387;-58
2023/10/18 09:47:18;;;;;;;;;;;;;;;10.64;94.57;100517.19;5092638;28;19993;-57
2023/10/18 09:49:45;;;;;;;;;;;;;;;10.83;94.19;100513.34;5093604;28;19916;-57
2023/10/18 09:52:13;;;;;;;;;;;;;;;11.05;88.10;100504.38;5093226;28;20383;-57
2023/10/18 09:54:47;;;;;;;;;;;;;;;11.04;91.99;100497.50;5092783;28;20364;-57
2023/10/18 09:57:18;;;;;;;;;;;;;;;11.15;92.53;100493.44;5093241;28;19923;-57
2023/10/18 09:59:47;;;;;;;;;;;;;;;11.41;87.29;100490.53;5093178;28;20388;-57
2023/10/18 10:02:15;;;;;;;;;;;;;;;11.62;86.95;100486.63;5092177;28;19924;-57
2023/10/18 10:04:42;;;;;;;;;;;;;;;11.73;83.10;100479.09;5093615;28;19998;-57
2023/10/18 10:09:59;;;;;;;;;;;;;;;11.77;88.11;100465.41;5092890;28;19927;-57
2023/10/18 10:12:28;;;;;;;;;;;;;;;11.99;88.70;100467.59;5093060;28;19999;-58
2023/10/18 10:14:53;;;;;;;;;;;;;;;12.23;80.07;100467.97;5092417;28;19916;-57
2023/10/18 10:17:20;;;;;;;;;;;;;;;12.35;82.30;100460.41;5095844;28;19916;-57
2023/10/18 10:19:51;;;;;;;;;;;;;;;12.45;81.82;100457.13;5097311;28;20298;-57
2023/10/18 10:22:17;;;;;;;;;;;;;;;12.66;80.28;100455.72;5096446;28;19970;-57
2023/10/18 10:24:43;;;;;;;;;;;;;;;12.82;74.99;100441.28;5097371;28;19916;-57
2023/10/18 10:27:27;;;;;;;;;;;;;;;12.73;80.22;100430.81;5097301;28;19916;-57
2023/10/18 10:29:59;;;;;;;;;;;;;;;12.81;84.00;100419.72;5096720;28;19966;-58
2023/10/18 10:32:27;;;;;;;;;;;;;;;13.09;81.24;100414.03;5097159;28;19923;-57
2023/10/18 10:35:15;;;;;;;;;;;;;;;13.29;84.24;100403.94;5097314;28;19916;-57
2023/10/18 10:37:51;;;;;;;;;;;;;;;13.53;77.78;100402.47;5096393;28;19920;-57
2023/10/18 10:40:44;;;;;;;;;;;;;;;13.60;79.95;100402.56;5096946;28;19947;-57
2023/10/18 10:43:08;;;;;;;;;;;;;;;13.70;75.36;100388.00;5096118;28;20385;-57
2023/10/18 10:50:57;;;;;;;;;;;;;;;13.95;75.87;100377.84;5096281;28;19920;-57
2023/10/18 10:53:34;;;;;;;;;;;;;;;13.96;80.30;100367.50;5096555;28;19912;-57
2023/10/18 10:56:17;;;;;;;;;;;;;;;13.97;78.48;100374.41;5096908;28;19937;-57
2023/10/18 10:58:47;;;;;;;;;;;;;;;13.76;75.40;100369.94;5096134;28;19912;-57
2023/10/18 11:01:13;;;;;;;;;;;;;;;13.52;78.00;100375.75;5096149;28;19920;-57
2023/10/18 11:03:53;;;;;;;;;;;;;;;13.47;81.49;100367.06;5096636;28;19920;-57
2023/10/18 11:06:26;;;;;;;;;;;;;;;13.69;80.43;100362.09;5095555;28;19916;-57
2023/10/18 11:08:52;;;;;;;;;;;;;;;13.82;81.04;100344.06;5096453;28;19977;-57
2023/10/18 11:11:21;;;;;;;;;;;;;;;13.92;81.09;100336.38;5095354;28;19920;-57
2023/10/18 11:13:47;;;;;;;;;;;;;;;14.01;79.43;100336.44;5096596;28;19920;-57
2023/10/18 11:16:12;;;;;;;;;;;;;;;14.12;82.77;100328.72;5096155;28;19994;-57
2023/10/18 11:18:42;;;;;;;;;;;;;;;14.14;78.86;100322.69;5095698;28;19920;-57
2023/10/18 11:21:18;;;;;;;;;;;;;;;14.21;81.53;100312.38;5096240;28;19916;-57
2023/10/18 11:23:46;;;;;;;;;;;;;;;14.42;78.57;100306.44;5096296;28;19916;-57
2023/10/18 11:26:19;;;;;;;;;;;;;;;14.55;75.26;100307.38;5095328;28;19923;-58
2023/10/18 11:28:44;;;;;;;;;;;;;;;14.61;74.79;100303.06;5095470;28;19916;-57
2023/10/18 11:31:10;;;;;;;;;;;;;;;14.65;73.63;100301.38;5096059;28;19912;-57
2023/10/18 11:33:56;;;;;;;;;;;;;;;14.76;74.56;100291.94;5095331;28;20322;-57
2023/10/18 11:36:21;;;;;;;;;;;;;;;15.00;80.94;100281.63;5095939;28;19966;-57
2023/10/18 11:41:34;;;;;;;;;;;;;;;15.21;71.08;100270.41;5094881;28;19923;-57
2023/10/18 11:44:00;;;;;;;;;;;;;;;15.19;73.09;100270.41;5095830;28;19923;-57
2023/10/18 11:46:25;;;;;;;;;;;;;;;15.33;74.89;100278.22;5094790;28;19912;-58
2023/10/18 11:48:53;;;;;;;;;;;;;;;15.33;65.80;100282.56;5095725;28;19916;-57
2023/10/18 11:51:18;;;;;;;;;;;;;;;15.19;67.73;100279.94;5095603;28;19958;-58
2023/10/18 11:53:49;;;;;;;;;;;;;;;14.90;66.94;100271.22;5095051;28;19920;-57
2023/10/18 11:56:17;;;;;;;;;;;;;;;14.64;68.43;100255.56;5095366;28;19916;-58
2023/10/18 11:58:57;;;;;;;;;;;;;;;14.64;64.93;100235.69;5095820;28;19916;-57
2023/10/18 12:01:31;;;;;;;;;;;;;;;14.55;69.45;100235.66;5094294;28;19927;-57
2023/10/18 12:03:56;;;;;;;;;;;;;;;14.64;70.52;100232.22;5095619;28;19920;-57
2023/10/18 12:06:22;;;;;;;;;;;;;;;14.54;68.20;100233.03;5095060;28;19943;-57
2023/10/18 12:08:55;;;;;;;;;;;;;;;14.40;71.11;100220.03;5094681;28;19923;-57
2023/10/18 12:11:22;;;;;;;;;;;;;;;14.29;68.23;100219.97;5095065;28;19999;-57
2023/10/18 12:13:47;;;;;;;;;;;;;;;14.22;66.55;100211.31;5095528;28;19938;-58
2023/10/18 12:16:13;;;;;;;;;;;;;;;14.25;66.92;100205.28;5094441;28;19916;-58
2023/10/18 12:18:38;;;;;;;;;;;;;;;14.33;69.77;100206.16;5095264;28;20529;-57
2023/10/18 12:21:05;;;;;;;;;;;;;;;14.44;68.73;100193.25;5095184;28;20003;-57
2023/10/18 12:23:30;;;;;;;;;;;;;;;14.71;66.64;100183.84;5094089;28;19942;-57
2023/10/18 12:25:59;;;;;;;;;;;;;;;14.87;67.31;100190.78;5094976;28;20299;-57
2023/10/18 12:28:28;;;;;;;;;;;;;;;14.91;66.00;100186.44;5093822;28;20275;-58
2023/10/18 12:30:54;;;;;;;;;;;;;;;14.87;67.51;100180.38;5095143;28;19916;-57
2023/10/18 12:33:33;;;;;;;;;;;;;;;14.88;64.18;100166.56;5094767;28;19961;-58
2023/10/18 12:35:59;;;;;;;;;;;;;;;14.72;65.88;100162.22;5094298;28;19916;-58
2023/10/18 12:38:31;;;;;;;;;;;;;;;14.62;67.55;100159.56;5094608;28;20072;-57
2023/10/18 12:41:01;;;;;;;;;;;;;;;14.60;67.58;100144.88;5093860;28;19916;-57
2023/10/18 12:43:31;;;;;;;;;;;;;;;14.58;69.71;100151.81;5093899;28;19948;-57
2023/10/18 12:45:56;;;;;;;;;;;;;;;14.60;67.03;100143.16;5094803;28;19916;-57
2023/10/18 12:48:22;;;;;;;;;;;;;;;14.62;64.06;100128.44;5094458;28;20025;-57
2023/10/18 12:50:54;;;;;;;;;;;;;;;14.62;63.92;100125.00;5093841;28;19969;-57
2023/10/18 12:55:57;;;;;;;;;;;;;;;14.86;67.65;100112.94;5094683;28;19916;-57
2023/10/18 12:58:29;;;;;;;;;;;;;;;15.21;65.93;100106.88;5093457;28;19927;-57
2023/10/18 13:00:55;;;;;;;;;;;;;;;15.35;63.62;100096.47;5094016;28;20363;-58
2023/10/18 13:03:22;;;;;;;;;;;;;;;15.58;64.49;100092.09;5094248;28;20383;-57
2023/10/18 13:05:51;;;;;;;;;;;;;;;15.67;60.06;100085.97;5093514;28;19916;-58
2023/10/18 13:08:22;;;;;;;;;;;;;;;15.52;60.50;100080.84;5094197;28;19999;-58
2023/10/18 13:10:59;;;;;;;;;;;;;;;15.44;62.52;100065.28;5093625;28;19923;-58
2023/10/18 13:13:26;;;;;;;;;;;;;;;15.38;61.05;100062.72;5093937;28;19991;-57
2023/10/18 13:15:51;;;;;;;;;;;;;;;15.40;63.27;100056.66;5094063;28;19923;-58
2023/10/18 13:18:17;;;;;;;;;;;;;;;15.62;63.49;100046.16;5092994;28;19916;-58
2023/10/18 13:20:45;;;;;;;;;;;;;;;15.75;61.23;100054.78;5094243;28;19916;-57
2023/10/18 13:23:12;;;;;;;;;;;;;;;15.56;64.80;100046.22;5093988;28;19923;-57
2023/10/18 13:25:37;;;;;;;;;;;;;;;15.28;64.59;100046.28;5093260;28;19938;-57
2023/10/18 13:28:05;;;;;;;;;;;;;;;15.12;64.27;100029.91;5093905;28;20287;-58
2023/10/18 13:30:43;;;;;;;;;;;;;;;14.98;64.71;100011.75;5093566;28;19920;-58
2023/10/18 13:33:18;;;;;;;;;;;;;;;14.78;66.95;100010.06;5093347;28;19916;-57
2023/10/18 13:35:44;;;;;;;;;;;;;;;14.63;69.58;100002.25;5094021;28;19963;-57
2023/10/18 13:38:10;;;;;;;;;;;;;;;14.48;67.39;99990.16;5093510;28;20368;-57